Time;durP1;ratioP1;P1;durP2;ratioP2;P2;SDS_P1;SDS_P2;PMS_P1;PMS_P2;Temp;Humidity;BMP_temperature;BMP_pressure;BME280_temperature;BME280_humidity;BME280_pressure;Samples;Min_cycle;Max_cycle;Signal;HPM_P1;HPM_P2
2019/07/19 00:00:54;;;;;;;8.700001;7.8;;;;;;;15.34;66.61719;95081.91;;;;
2019/07/19 00:01:55;;;;;;;8.700001;7.8;;;;;;;15.34;66.61719;95081.91;;;;
2019/07/19 00:02:56;;;;;;;8.700001;7.8;;;;;;;15.34;66.61719;95081.91;;;;
2019/07/19 00:03:57;;;;;;;8.700001;7.8;;;;;;;15.34;66.61719;95081.91;;;;
2019/07/19 00:04:58;;;;;;;8.450001;7.6;;;;;;;15.3;66.79492;95084.89;;;;
2019/07/19 00:05:59;;;;;;;8.450001;7.6;;;;;;;15.3;66.79492;95084.89;;;;
2019/07/19 00:07:00;;;;;;;8.450001;7.6;;;;;;;15.3;66.79492;95084.89;;;;
2019/07/19 00:08:02;;;;;;;8.450001;7.6;;;;;;;15.3;66.79492;95084.89;;;;
2019/07/19 00:09:03;;;;;;;8.450001;7.6;;;;;;;15.3;66.79492;95084.89;;;;
2019/07/19 00:10:07;;;;;;;8.450001;7.6;;;;;;;15.3;66.79492;95084.89;;;;
2019/07/19 00:11:09;;;;;;;8.450001;7.6;;;;;;;15.3;66.79492;95084.89;;;;
2019/07/19 00:12:10;;;;;;;8.450001;7.6;;;;;;;15.3;66.79492;95084.89;;;;
2019/07/19 00:13:12;;;;;;;8.450001;7.6;;;;;;;15.3;66.79492;95084.89;;;;
2019/07/19 00:14:13;;;;;;;8.450001;7.6;;;;;;;15.3;66.79492;95084.89;;;;
2019/07/19 00:15:14;;;;;;;8.450001;7.6;;;;;;;15.3;66.79492;95084.89;;;;
2019/07/19 00:16:15;;;;;;;8.450001;7.65;;;;;;;15.29;67.06348;95092.91;;;;
2019/07/19 00:17:16;;;;;;;8.450001;7.65;;;;;;;15.29;67.06348;95092.91;;;;
2019/07/19 00:18:18;;;;;;;8.450001;7.65;;;;;;;15.29;67.06348;95092.91;;;;
2019/07/19 00:19:19;;;;;;;8.450001;7.65;;;;;;;15.29;67.06348;95092.91;;;;
2019/07/19 00:20:20;;;;;;;8.450001;7.65;;;;;;;15.29;67.06348;95092.91;;;;
2019/07/19 00:21:21;;;;;;;8.450001;7.65;;;;;;;15.29;67.06348;95092.91;;;;
2019/07/19 00:22:22;;;;;;;8.450001;7.65;;;;;;;15.29;67.06348;95092.91;;;;
2019/07/19 00:23:23;;;;;;;8.450001;7.65;;;;;;;15.29;67.06348;95092.91;;;;
2019/07/19 00:24:24;;;;;;;8.450001;7.65;;;;;;;15.29;67.06348;95092.91;;;;
2019/07/19 00:25:25;;;;;;;8.450001;7.65;;;;;;;15.29;67.06348;95092.91;;;;
2019/07/19 00:26:26;;;;;;;8.349999;7.500001;;;;;;;15.36;67.06445;95094.67;;;;
2019/07/19 00:27:27;;;;;;;8.349999;7.500001;;;;;;;15.36;67.06445;95094.67;;;;
2019/07/19 00:28:28;;;;;;;8.349999;7.500001;;;;;;;15.36;67.06445;95094.67;;;;
2019/07/19 00:29:30;;;;;;;8.349999;7.500001;;;;;;;15.36;67.06445;95094.67;;;;
2019/07/19 00:30:31;;;;;;;8.349999;7.500001;;;;;;;15.36;67.06445;95094.67;;;;
2019/07/19 00:31:32;;;;;;;8.349999;7.500001;;;;;;;15.36;67.06445;95094.67;;;;
2019/07/19 00:32:33;;;;;;;8.349999;7.500001;;;;;;;15.36;67.06445;95094.67;;;;
2019/07/19 00:33:35;;;;;;;8.349999;7.500001;;;;;;;15.36;67.06445;95094.67;;;;
2019/07/19 00:34:36;;;;;;;8.349999;7.500001;;;;;;;15.36;67.06445;95094.67;;;;
2019/07/19 00:35:37;;;;;;;8.349999;7.500001;;;;;;;15.36;67.06445;95094.67;;;;
2019/07/19 00:36:38;;;;;;;7.900001;6.799999;;;;;;;15.43;67.12988;95089.84;;;;
2019/07/19 00:37:39;;;;;;;7.900001;6.799999;;;;;;;15.43;67.12988;95089.84;;;;
2019/07/19 00:38:40;;;;;;;7.900001;6.799999;;;;;;;15.43;67.12988;95089.84;;;;
2019/07/19 00:39:41;;;;;;;7.900001;6.799999;;;;;;;15.43;67.12988;95089.84;;;;
2019/07/19 00:40:42;;;;;;;7.900001;6.799999;;;;;;;15.43;67.12988;95089.84;;;;
2019/07/19 00:41:53;;;;;;;7.900001;6.799999;;;;;;;15.43;67.12988;95089.84;;;;
2019/07/19 00:42:54;;;;;;;7.900001;6.799999;;;;;;;15.43;67.12988;95089.84;;;;
2019/07/19 00:43:55;;;;;;;7.900001;6.799999;;;;;;;15.43;67.12988;95089.84;;;;
2019/07/19 00:44:56;;;;;;;7.900001;6.799999;;;;;;;15.43;67.12988;95089.84;;;;
2019/07/19 00:45:57;;;;;;;7.900001;6.799999;;;;;;;15.43;67.12988;95089.84;;;;
2019/07/19 00:46:58;;;;;;;7.900001;6.799999;;;;;;;15.43;67.12988;95089.84;;;;
2019/07/19 00:47:59;;;;;;;7.900001;6.65;;;;;;;15.6;67.02441;95084.11;;;;
2019/07/19 00:49:00;;;;;;;7.900001;6.65;;;;;;;15.6;67.02441;95084.11;;;;
2019/07/19 00:50:02;;;;;;;7.900001;6.65;;;;;;;15.6;67.02441;95084.11;;;;
2019/07/19 00:51:04;;;;;;;7.900001;6.65;;;;;;;15.6;67.02441;95084.11;;;;
2019/07/19 00:52:05;;;;;;;7.900001;6.65;;;;;;;15.6;67.02441;95084.11;;;;
2019/07/19 00:53:06;;;;;;;7.900001;6.65;;;;;;;15.6;67.02441;95084.11;;;;
2019/07/19 00:54:07;;;;;;;7.900001;6.65;;;;;;;15.6;67.02441;95084.11;;;;
2019/07/19 00:55:08;;;;;;;7.900001;6.65;;;;;;;15.6;67.02441;95084.11;;;;
2019/07/19 00:56:10;;;;;;;7.900001;6.65;;;;;;;15.6;67.02441;95084.11;;;;
2019/07/19 00:57:12;;;;;;;7.900001;6.65;;;;;;;15.6;67.02441;95084.11;;;;
2019/07/19 00:58:13;;;;;;;7.35;6.65;;;;;;;15.69;66.72363;95083.44;;;;
2019/07/19 00:59:14;;;;;;;7.35;6.65;;;;;;;15.69;66.72363;95083.44;;;;
2019/07/19 01:00:15;;;;;;;7.35;6.65;;;;;;;15.69;66.72363;95083.44;;;;
2019/07/19 01:01:18;;;;;;;7.35;6.65;;;;;;;15.69;66.72363;95083.44;;;;
2019/07/19 01:02:19;;;;;;;7.35;6.65;;;;;;;15.69;66.72363;95083.44;;;;
2019/07/19 01:03:20;;;;;;;7.35;6.65;;;;;;;15.69;66.72363;95083.44;;;;
2019/07/19 01:04:21;;;;;;;7.35;6.65;;;;;;;15.69;66.72363;95083.44;;;;
2019/07/19 01:05:22;;;;;;;7.35;6.65;;;;;;;15.69;66.72363;95083.44;;;;
2019/07/19 01:06:23;;;;;;;7.35;6.65;;;;;;;15.69;66.72363;95083.44;;;;
2019/07/19 01:07:24;;;;;;;7.35;6.65;;;;;;;15.69;66.72363;95083.44;;;;
2019/07/19 01:08:26;;;;;;;6.800001;6.2;;;;;;;15.75;66.68848;95079.1;;;;
2019/07/19 01:09:27;;;;;;;6.800001;6.2;;;;;;;15.75;66.68848;95079.1;;;;
2019/07/19 01:10:28;;;;;;;6.800001;6.2;;;;;;;15.75;66.68848;95079.1;;;;
2019/07/19 01:11:29;;;;;;;6.800001;6.2;;;;;;;15.75;66.68848;95079.1;;;;
2019/07/19 01:12:30;;;;;;;6.800001;6.2;;;;;;;15.75;66.68848;95079.1;;;;
2019/07/19 01:13:31;;;;;;;6.800001;6.2;;;;;;;15.75;66.68848;95079.1;;;;
2019/07/19 01:14:32;;;;;;;6.800001;6.2;;;;;;;15.75;66.68848;95079.1;;;;
2019/07/19 01:15:34;;;;;;;6.800001;6.2;;;;;;;15.75;66.68848;95079.1;;;;
2019/07/19 01:16:36;;;;;;;6.800001;6.2;;;;;;;15.75;66.68848;95079.1;;;;
2019/07/19 01:17:37;;;;;;;6.800001;6.2;;;;;;;15.75;66.68848;95079.1;;;;
2019/07/19 01:18:38;;;;;;;6.800001;6.2;;;;;;;15.75;66.68848;95079.1;;;;
2019/07/19 01:19:39;;;;;;;7.400001;6.55;;;;;;;15.72;66.42383;95086.42;;;;
2019/07/19 01:20:40;;;;;;;7.400001;6.55;;;;;;;15.72;66.42383;95086.42;;;;
2019/07/19 01:21:43;;;;;;;7.400001;6.55;;;;;;;15.72;66.42383;95086.42;;;;
2019/07/19 01:22:44;;;;;;;7.400001;6.55;;;;;;;15.72;66.42383;95086.42;;;;
2019/07/19 01:23:45;;;;;;;7.400001;6.55;;;;;;;15.72;66.42383;95086.42;;;;
2019/07/19 01:24:46;;;;;;;7.400001;6.55;;;;;;;15.72;66.42383;95086.42;;;;
2019/07/19 01:25:47;;;;;;;7.400001;6.55;;;;;;;15.72;66.42383;95086.42;;;;
2019/07/19 01:26:48;;;;;;;7.400001;6.55;;;;;;;15.72;66.42383;95086.42;;;;
2019/07/19 01:27:49;;;;;;;7.400001;6.55;;;;;;;15.72;66.42383;95086.42;;;;
2019/07/19 01:28:51;;;;;;;7.400001;6.55;;;;;;;15.72;66.42383;95086.42;;;;
2019/07/19 01:29:52;;;;;;;6.7;6.1;;;;;;;15.81;66.50293;95087.13;;;;
2019/07/19 01:30:53;;;;;;;6.7;6.1;;;;;;;15.81;66.50293;95087.13;;;;
2019/07/19 01:31:54;;;;;;;6.7;6.1;;;;;;;15.81;66.50293;95087.13;;;;
2019/07/19 01:32:55;;;;;;;6.7;6.1;;;;;;;15.81;66.50293;95087.13;;;;
2019/07/19 01:33:56;;;;;;;6.7;6.1;;;;;;;15.81;66.50293;95087.13;;;;
2019/07/19 01:34:57;;;;;;;6.7;6.1;;;;;;;15.81;66.50293;95087.13;;;;
2019/07/19 01:35:59;;;;;;;6.7;6.1;;;;;;;15.81;66.50293;95087.13;;;;
2019/07/19 01:37:00;;;;;;;6.7;6.1;;;;;;;15.81;66.50293;95087.13;;;;
2019/07/19 01:38:01;;;;;;;6.7;6.1;;;;;;;15.81;66.50293;95087.13;;;;
2019/07/19 01:39:02;;;;;;;6.7;6.1;;;;;;;15.81;66.50293;95087.13;;;;
2019/07/19 01:40:04;;;;;;;6.1;5.5;;;;;;;15.92;66.36719;95093.38;;;;
2019/07/19 01:41:06;;;;;;;6.1;5.5;;;;;;;15.92;66.36719;95093.38;;;;
2019/07/19 01:42:07;;;;;;;6.1;5.5;;;;;;;15.92;66.36719;95093.38;;;;
2019/07/19 01:43:08;;;;;;;6.1;5.5;;;;;;;15.92;66.36719;95093.38;;;;
2019/07/19 01:44:09;;;;;;;6.1;5.5;;;;;;;15.92;66.36719;95093.38;;;;
2019/07/19 01:45:10;;;;;;;6.1;5.5;;;;;;;15.92;66.36719;95093.38;;;;
2019/07/19 01:46:13;;;;;;;6.1;5.5;;;;;;;15.92;66.36719;95093.38;;;;
2019/07/19 01:47:14;;;;;;;6.1;5.5;;;;;;;15.92;66.36719;95093.38;;;;
2019/07/19 01:48:15;;;;;;;6.1;5.5;;;;;;;15.92;66.36719;95093.38;;;;
2019/07/19 01:49:17;;;;;;;6.1;5.5;;;;;;;15.92;66.36719;95093.38;;;;
2019/07/19 01:50:18;;;;;;;6.1;5.5;;;;;;;15.92;66.36719;95093.38;;;;
2019/07/19 01:51:19;;;;;;;7.5;5.699998;;;;;;;16.17;65.85059;95135.02;;;;
2019/07/19 01:52:20;;;;;;;7.5;5.699998;;;;;;;16.17;65.85059;95135.02;;;;
2019/07/19 01:53:21;;;;;;;7.5;5.699998;;;;;;;16.17;65.85059;95135.02;;;;
2019/07/19 01:54:23;;;;;;;7.5;5.699998;;;;;;;16.17;65.85059;95135.02;;;;
2019/07/19 01:55:24;;;;;;;7.5;5.699998;;;;;;;16.17;65.85059;95135.02;;;;
2019/07/19 01:56:25;;;;;;;7.5;5.699998;;;;;;;16.17;65.85059;95135.02;;;;
2019/07/19 01:57:26;;;;;;;7.5;5.699998;;;;;;;16.17;65.85059;95135.02;;;;
2019/07/19 01:58:27;;;;;;;7.5;5.699998;;;;;;;16.17;65.85059;95135.02;;;;
2019/07/19 01:59:28;;;;;;;7.5;5.699998;;;;;;;16.17;65.85059;95135.02;;;;
2019/07/19 02:00:29;;;;;;;7.5;5.699998;;;;;;;16.17;65.85059;95135.02;;;;
2019/07/19 02:01:50;;;;;;;6.95;6.25;;;;;;;16.4;65.9502;95152.7;;;;
2019/07/19 02:02:51;;;;;;;6.95;6.25;;;;;;;16.4;65.9502;95152.7;;;;
2019/07/19 02:03:53;;;;;;;6.95;6.25;;;;;;;16.4;65.9502;95152.7;;;;
2019/07/19 02:04:54;;;;;;;6.95;6.25;;;;;;;16.4;65.9502;95152.7;;;;
2019/07/19 02:05:55;;;;;;;6.95;6.25;;;;;;;16.4;65.9502;95152.7;;;;
2019/07/19 02:06:56;;;;;;;6.95;6.25;;;;;;;16.4;65.9502;95152.7;;;;
2019/07/19 02:07:57;;;;;;;6.95;6.25;;;;;;;16.4;65.9502;95152.7;;;;
2019/07/19 02:08:58;;;;;;;6.95;6.25;;;;;;;16.4;65.9502;95152.7;;;;
2019/07/19 02:09:59;;;;;;;6.95;6.25;;;;;;;16.4;65.9502;95152.7;;;;
2019/07/19 02:11:00;;;;;;;6.95;6.25;;;;;;;16.4;65.9502;95152.7;;;;
2019/07/19 02:12:02;;;;;;;6.95;6.25;;;;;;;16.4;65.9502;95152.7;;;;
2019/07/19 02:13:03;;;;;;;6.95;6.25;;;;;;;16.4;65.9502;95152.7;;;;
2019/07/19 02:14:04;;;;;;;6.95;6.25;;;;;;;16.4;65.9502;95152.7;;;;
2019/07/19 02:15:05;;;;;;;6.95;6.25;;;;;;;16.4;65.9502;95152.7;;;;
2019/07/19 02:16:07;;;;;;;6.95;6.25;;;;;;;16.4;65.9502;95152.7;;;;
2019/07/19 02:17:08;;;;;;;6.95;6.25;;;;;;;16.4;65.9502;95152.7;;;;
2019/07/19 02:18:09;;;;;;;6.95;6.25;;;;;;;16.4;65.9502;95152.7;;;;
2019/07/19 02:19:11;;;;;;;6.95;6.25;;;;;;;16.4;65.9502;95152.7;;;;
2019/07/19 02:20:12;;;;;;;6.95;6.25;;;;;;;16.4;65.9502;95152.7;;;;
2019/07/19 02:21:13;;;;;;;6.95;6.25;;;;;;;16.4;65.9502;95152.7;;;;
2019/07/19 02:22:14;;;;;;;6.95;6.25;;;;;;;16.4;65.9502;95152.7;;;;
2019/07/19 02:23:16;;;;;;;8.599999;7.749999;;;;;;;16.88;65.94531;95155.33;;;;
2019/07/19 02:24:17;;;;;;;8.599999;7.749999;;;;;;;16.88;65.94531;95155.33;;;;
2019/07/19 02:25:18;;;;;;;8.599999;7.749999;;;;;;;16.88;65.94531;95155.33;;;;
2019/07/19 02:26:22;;;;;;;8.599999;7.749999;;;;;;;16.88;65.94531;95155.33;;;;
2019/07/19 02:27:23;;;;;;;8.599999;7.749999;;;;;;;16.88;65.94531;95155.33;;;;
2019/07/19 02:28:24;;;;;;;8.599999;7.749999;;;;;;;16.88;65.94531;95155.33;;;;
2019/07/19 02:29:25;;;;;;;8.599999;7.749999;;;;;;;16.88;65.94531;95155.33;;;;
2019/07/19 02:30:26;;;;;;;8.599999;7.749999;;;;;;;16.88;65.94531;95155.33;;;;
2019/07/19 02:31:28;;;;;;;8.599999;7.749999;;;;;;;16.88;65.94531;95155.33;;;;
2019/07/19 02:32:29;;;;;;;8.599999;7.749999;;;;;;;16.88;65.94531;95155.33;;;;
2019/07/19 02:33:30;;;;;;;8.9;7.75;;;;;;;16.91;66.54785;95150.7;;;;
2019/07/19 02:34:31;;;;;;;8.9;7.75;;;;;;;16.91;66.54785;95150.7;;;;
2019/07/19 02:35:32;;;;;;;8.9;7.75;;;;;;;16.91;66.54785;95150.7;;;;
2019/07/19 02:36:34;;;;;;;8.9;7.75;;;;;;;16.91;66.54785;95150.7;;;;
2019/07/19 02:37:35;;;;;;;8.9;7.75;;;;;;;16.91;66.54785;95150.7;;;;
2019/07/19 02:38:36;;;;;;;8.9;7.75;;;;;;;16.91;66.54785;95150.7;;;;
2019/07/19 02:39:37;;;;;;;8.9;7.75;;;;;;;16.91;66.54785;95150.7;;;;
2019/07/19 02:40:38;;;;;;;8.9;7.75;;;;;;;16.91;66.54785;95150.7;;;;
2019/07/19 02:41:39;;;;;;;8.9;7.75;;;;;;;16.91;66.54785;95150.7;;;;
2019/07/19 02:42:40;;;;;;;8.9;7.75;;;;;;;16.91;66.54785;95150.7;;;;
2019/07/19 02:43:42;;;;;;;8.9;7.75;;;;;;;16.91;66.54785;95150.7;;;;
2019/07/19 02:44:43;;;;;;;8.699999;7.9;;;;;;;16.85;67.1709;95154.41;;;;
2019/07/19 02:45:44;;;;;;;8.699999;7.9;;;;;;;16.85;67.1709;95154.41;;;;
2019/07/19 02:46:45;;;;;;;8.699999;7.9;;;;;;;16.85;67.1709;95154.41;;;;
2019/07/19 02:47:46;;;;;;;8.699999;7.9;;;;;;;16.85;67.1709;95154.41;;;;
2019/07/19 02:48:47;;;;;;;8.699999;7.9;;;;;;;16.85;67.1709;95154.41;;;;
2019/07/19 02:49:48;;;;;;;8.699999;7.9;;;;;;;16.85;67.1709;95154.41;;;;
2019/07/19 02:50:50;;;;;;;8.699999;7.9;;;;;;;16.85;67.1709;95154.41;;;;
2019/07/19 02:51:51;;;;;;;8.699999;7.9;;;;;;;16.85;67.1709;95154.41;;;;
2019/07/19 02:52:52;;;;;;;8.699999;7.9;;;;;;;16.85;67.1709;95154.41;;;;
2019/07/19 02:53:53;;;;;;;8.699999;7.9;;;;;;;16.85;67.1709;95154.41;;;;
2019/07/19 02:54:54;;;;;;;8.700001;7.799999;;;;;;;16.88;67.72949;95148.52;;;;
2019/07/19 02:55:55;;;;;;;8.700001;7.799999;;;;;;;16.88;67.72949;95148.52;;;;
2019/07/19 02:56:56;;;;;;;8.700001;7.799999;;;;;;;16.88;67.72949;95148.52;;;;
2019/07/19 02:57:58;;;;;;;8.700001;7.799999;;;;;;;16.88;67.72949;95148.52;;;;
2019/07/19 02:58:59;;;;;;;8.700001;7.799999;;;;;;;16.88;67.72949;95148.52;;;;
2019/07/19 03:00:00;;;;;;;8.700001;7.799999;;;;;;;16.88;67.72949;95148.52;;;;
2019/07/19 03:01:01;;;;;;;8.700001;7.799999;;;;;;;16.88;67.72949;95148.52;;;;
2019/07/19 03:02:02;;;;;;;8.700001;7.799999;;;;;;;16.88;67.72949;95148.52;;;;
2019/07/19 03:03:03;;;;;;;8.700001;7.799999;;;;;;;16.88;67.72949;95148.52;;;;
2019/07/19 03:04:05;;;;;;;8.700001;7.799999;;;;;;;16.88;67.72949;95148.52;;;;
2019/07/19 03:05:06;;;;;;;8.700001;7.799999;;;;;;;16.88;67.72949;95148.52;;;;
2019/07/19 03:06:07;;;;;;;7.95;7.25;;;;;;;16.85;67.84375;95151.81;;;;
2019/07/19 03:07:08;;;;;;;7.95;7.25;;;;;;;16.85;67.84375;95151.81;;;;
2019/07/19 03:08:09;;;;;;;7.95;7.25;;;;;;;16.85;67.84375;95151.81;;;;
2019/07/19 03:09:10;;;;;;;7.95;7.25;;;;;;;16.85;67.84375;95151.81;;;;
2019/07/19 03:10:11;;;;;;;7.95;7.25;;;;;;;16.85;67.84375;95151.81;;;;
2019/07/19 03:11:16;;;;;;;7.95;7.25;;;;;;;16.85;67.84375;95151.81;;;;
2019/07/19 03:12:18;;;;;;;7.95;7.25;;;;;;;16.85;67.84375;95151.81;;;;
2019/07/19 03:13:19;;;;;;;7.95;7.25;;;;;;;16.85;67.84375;95151.81;;;;
2019/07/19 03:14:20;;;;;;;7.95;7.25;;;;;;;16.85;67.84375;95151.81;;;;
2019/07/19 03:15:21;;;;;;;7.95;7.25;;;;;;;16.85;67.84375;95151.81;;;;
2019/07/19 03:16:22;;;;;;;8.200001;7.400001;;;;;;;16.9;68.00586;95144.42;;;;
2019/07/19 03:17:23;;;;;;;8.200001;7.400001;;;;;;;16.9;68.00586;95144.42;;;;
2019/07/19 03:18:24;;;;;;;8.200001;7.400001;;;;;;;16.9;68.00586;95144.42;;;;
2019/07/19 03:19:25;;;;;;;8.200001;7.400001;;;;;;;16.9;68.00586;95144.42;;;;
2019/07/19 03:20:26;;;;;;;8.200001;7.400001;;;;;;;16.9;68.00586;95144.42;;;;
2019/07/19 03:21:27;;;;;;;8.200001;7.400001;;;;;;;16.9;68.00586;95144.42;;;;
2019/07/19 03:22:28;;;;;;;8.200001;7.400001;;;;;;;16.9;68.00586;95144.42;;;;
2019/07/19 03:23:30;;;;;;;8.200001;7.400001;;;;;;;16.9;68.00586;95144.42;;;;
2019/07/19 03:24:31;;;;;;;8.200001;7.400001;;;;;;;16.9;68.00586;95144.42;;;;
2019/07/19 03:25:32;;;;;;;8.200001;7.400001;;;;;;;16.9;68.00586;95144.42;;;;
2019/07/19 03:26:33;;;;;;;8.849999;8.000001;;;;;;;16.9;68.16797;95143.59;;;;
2019/07/19 03:27:34;;;;;;;8.849999;8.000001;;;;;;;16.9;68.16797;95143.59;;;;
2019/07/19 03:28:35;;;;;;;8.849999;8.000001;;;;;;;16.9;68.16797;95143.59;;;;
2019/07/19 03:29:36;;;;;;;8.849999;8.000001;;;;;;;16.9;68.16797;95143.59;;;;
2019/07/19 03:30:37;;;;;;;8.849999;8.000001;;;;;;;16.9;68.16797;95143.59;;;;
2019/07/19 03:31:38;;;;;;;8.849999;8.000001;;;;;;;16.9;68.16797;95143.59;;;;
2019/07/19 03:32:40;;;;;;;8.849999;8.000001;;;;;;;16.9;68.16797;95143.59;;;;
2019/07/19 03:33:41;;;;;;;8.849999;8.000001;;;;;;;16.9;68.16797;95143.59;;;;
2019/07/19 03:34:42;;;;;;;8.849999;8.000001;;;;;;;16.9;68.16797;95143.59;;;;
2019/07/19 03:35:43;;;;;;;8.849999;8.000001;;;;;;;16.9;68.16797;95143.59;;;;
2019/07/19 03:36:44;;;;;;;8.849999;8.000001;;;;;;;16.9;68.16797;95143.59;;;;
2019/07/19 03:37:45;;;;;;;8.799999;8;;;;;;;16.94;68.43652;95145.51;;;;
2019/07/19 03:38:46;;;;;;;8.799999;8;;;;;;;16.94;68.43652;95145.51;;;;
2019/07/19 03:39:47;;;;;;;8.799999;8;;;;;;;16.94;68.43652;95145.51;;;;
2019/07/19 03:40:48;;;;;;;8.799999;8;;;;;;;16.94;68.43652;95145.51;;;;
2019/07/19 03:41:49;;;;;;;8.799999;8;;;;;;;16.94;68.43652;95145.51;;;;
2019/07/19 03:42:51;;;;;;;8.799999;8;;;;;;;16.94;68.43652;95145.51;;;;
2019/07/19 03:43:52;;;;;;;8.799999;8;;;;;;;16.94;68.43652;95145.51;;;;
2019/07/19 03:44:53;;;;;;;8.799999;8;;;;;;;16.94;68.43652;95145.51;;;;
2019/07/19 03:45:54;;;;;;;8.799999;8;;;;;;;16.94;68.43652;95145.51;;;;
2019/07/19 03:46:55;;;;;;;8.799999;8;;;;;;;16.94;68.43652;95145.51;;;;
2019/07/19 03:47:56;;;;;;;9.200001;7.95;;;;;;;16.93;68.6084;95132;;;;
2019/07/19 03:48:57;;;;;;;9.200001;7.95;;;;;;;16.93;68.6084;95132;;;;
2019/07/19 03:49:58;;;;;;;9.200001;7.95;;;;;;;16.93;68.6084;95132;;;;
2019/07/19 03:50:59;;;;;;;9.200001;7.95;;;;;;;16.93;68.6084;95132;;;;
2019/07/19 03:52:00;;;;;;;9.200001;7.95;;;;;;;16.93;68.6084;95132;;;;
2019/07/19 03:53:02;;;;;;;9.200001;7.95;;;;;;;16.93;68.6084;95132;;;;
2019/07/19 03:54:03;;;;;;;9.200001;7.95;;;;;;;16.93;68.6084;95132;;;;
2019/07/19 03:55:04;;;;;;;9.200001;7.95;;;;;;;16.93;68.6084;95132;;;;
2019/07/19 03:56:06;;;;;;;9.200001;7.95;;;;;;;16.93;68.6084;95132;;;;
2019/07/19 03:57:07;;;;;;;9.200001;7.95;;;;;;;16.93;68.6084;95132;;;;
2019/07/19 03:58:08;;;;;;;9.200001;7.95;;;;;;;16.93;68.6084;95132;;;;
2019/07/19 03:59:09;;;;;;;8.5;7.699999;;;;;;;17.03;68.66699;95128.42;;;;
2019/07/19 04:00:10;;;;;;;8.5;7.699999;;;;;;;17.03;68.66699;95128.42;;;;
2019/07/19 04:01:12;;;;;;;8.5;7.699999;;;;;;;17.03;68.66699;95128.42;;;;
2019/07/19 04:02:13;;;;;;;8.5;7.699999;;;;;;;17.03;68.66699;95128.42;;;;
2019/07/19 04:03:14;;;;;;;8.5;7.699999;;;;;;;17.03;68.66699;95128.42;;;;
2019/07/19 04:04:15;;;;;;;8.5;7.699999;;;;;;;17.03;68.66699;95128.42;;;;
2019/07/19 04:05:16;;;;;;;8.5;7.699999;;;;;;;17.03;68.66699;95128.42;;;;
2019/07/19 04:06:18;;;;;;;8.5;7.699999;;;;;;;17.03;68.66699;95128.42;;;;
2019/07/19 04:07:19;;;;;;;8.5;7.699999;;;;;;;17.03;68.66699;95128.42;;;;
2019/07/19 04:08:20;;;;;;;8.5;7.699999;;;;;;;17.03;68.66699;95128.42;;;;
2019/07/19 04:09:21;;;;;;;7.849999;7.05;;;;;;;17.1;68.73145;95130.3;;;;
2019/07/19 04:10:22;;;;;;;7.849999;7.05;;;;;;;17.1;68.73145;95130.3;;;;
2019/07/19 04:11:25;;;;;;;7.849999;7.05;;;;;;;17.1;68.73145;95130.3;;;;
2019/07/19 04:12:26;;;;;;;7.849999;7.05;;;;;;;17.1;68.73145;95130.3;;;;
2019/07/19 04:13:27;;;;;;;7.849999;7.05;;;;;;;17.1;68.73145;95130.3;;;;
2019/07/19 04:14:28;;;;;;;7.849999;7.05;;;;;;;17.1;68.73145;95130.3;;;;
2019/07/19 04:15:29;;;;;;;7.849999;7.05;;;;;;;17.1;68.73145;95130.3;;;;
2019/07/19 04:16:39;;;;;;;7.849999;7.05;;;;;;;17.1;68.73145;95130.3;;;;
2019/07/19 04:17:40;;;;;;;7.849999;7.05;;;;;;;17.1;68.73145;95130.3;;;;
2019/07/19 04:18:41;;;;;;;7.849999;7.05;;;;;;;17.1;68.73145;95130.3;;;;
2019/07/19 04:19:42;;;;;;;8.049999;7.249999;;;;;;;17.25;68.43945;95136.07;;;;
2019/07/19 04:20:43;;;;;;;8.049999;7.249999;;;;;;;17.25;68.43945;95136.07;;;;
2019/07/19 04:21:44;;;;;;;8.049999;7.249999;;;;;;;17.25;68.43945;95136.07;;;;
2019/07/19 04:22:45;;;;;;;8.049999;7.249999;;;;;;;17.25;68.43945;95136.07;;;;
2019/07/19 04:23:46;;;;;;;8.049999;7.249999;;;;;;;17.25;68.43945;95136.07;;;;
2019/07/19 04:24:47;;;;;;;8.049999;7.249999;;;;;;;17.25;68.43945;95136.07;;;;
2019/07/19 04:25:49;;;;;;;8.049999;7.249999;;;;;;;17.25;68.43945;95136.07;;;;
2019/07/19 04:26:50;;;;;;;8.049999;7.249999;;;;;;;17.25;68.43945;95136.07;;;;
2019/07/19 04:27:51;;;;;;;8.049999;7.249999;;;;;;;17.25;68.43945;95136.07;;;;
2019/07/19 04:28:52;;;;;;;8.049999;7.249999;;;;;;;17.25;68.43945;95136.07;;;;
2019/07/19 04:29:53;;;;;;;8.049999;7.249999;;;;;;;17.25;68.43945;95136.07;;;;
2019/07/19 04:30:54;;;;;;;8.550001;7.250001;;;;;;;17.36;68.22754;95137.23;;;;
2019/07/19 04:31:55;;;;;;;8.550001;7.250001;;;;;;;17.36;68.22754;95137.23;;;;
2019/07/19 04:32:56;;;;;;;8.550001;7.250001;;;;;;;17.36;68.22754;95137.23;;;;
2019/07/19 04:33:58;;;;;;;8.550001;7.250001;;;;;;;17.36;68.22754;95137.23;;;;
2019/07/19 04:34:59;;;;;;;8.550001;7.250001;;;;;;;17.36;68.22754;95137.23;;;;
2019/07/19 04:36:00;;;;;;;8.550001;7.250001;;;;;;;17.36;68.22754;95137.23;;;;
2019/07/19 04:37:01;;;;;;;8.550001;7.250001;;;;;;;17.36;68.22754;95137.23;;;;
2019/07/19 04:38:02;;;;;;;8.550001;7.250001;;;;;;;17.36;68.22754;95137.23;;;;
2019/07/19 04:39:03;;;;;;;8.550001;7.250001;;;;;;;17.36;68.22754;95137.23;;;;
2019/07/19 04:40:05;;;;;;;8.550001;7.250001;;;;;;;17.36;68.22754;95137.23;;;;
2019/07/19 04:41:07;;;;;;;8.550001;7.25;;;;;;;17.52;68.0459;95186.21;;;;
2019/07/19 04:42:08;;;;;;;8.550001;7.25;;;;;;;17.52;68.0459;95186.21;;;;
2019/07/19 04:43:09;;;;;;;8.550001;7.25;;;;;;;17.52;68.0459;95186.21;;;;
2019/07/19 04:44:10;;;;;;;8.550001;7.25;;;;;;;17.52;68.0459;95186.21;;;;
2019/07/19 04:45:11;;;;;;;8.550001;7.25;;;;;;;17.52;68.0459;95186.21;;;;
2019/07/19 04:46:14;;;;;;;8.550001;7.25;;;;;;;17.52;68.0459;95186.21;;;;
2019/07/19 04:47:15;;;;;;;8.550001;7.25;;;;;;;17.52;68.0459;95186.21;;;;
2019/07/19 04:48:16;;;;;;;8.550001;7.25;;;;;;;17.52;68.0459;95186.21;;;;
2019/07/19 04:49:17;;;;;;;8.550001;7.25;;;;;;;17.52;68.0459;95186.21;;;;
2019/07/19 04:50:18;;;;;;;8.550001;7.25;;;;;;;17.52;68.0459;95186.21;;;;
2019/07/19 04:51:20;;;;;;;7.65;6.85;;;;;;;17.53;68.33008;95167.35;;;;
2019/07/19 04:52:21;;;;;;;7.65;6.85;;;;;;;17.53;68.33008;95167.35;;;;
2019/07/19 04:53:22;;;;;;;7.65;6.85;;;;;;;17.53;68.33008;95167.35;;;;
2019/07/19 04:54:23;;;;;;;7.65;6.85;;;;;;;17.53;68.33008;95167.35;;;;
2019/07/19 04:55:24;;;;;;;7.65;6.85;;;;;;;17.53;68.33008;95167.35;;;;
2019/07/19 04:56:25;;;;;;;7.65;6.85;;;;;;;17.53;68.33008;95167.35;;;;
2019/07/19 04:57:26;;;;;;;7.65;6.85;;;;;;;17.53;68.33008;95167.35;;;;
2019/07/19 04:58:27;;;;;;;7.65;6.85;;;;;;;17.53;68.33008;95167.35;;;;
2019/07/19 04:59:28;;;;;;;7.65;6.85;;;;;;;17.53;68.33008;95167.35;;;;
2019/07/19 05:00:29;;;;;;;7.65;6.85;;;;;;;17.53;68.33008;95167.35;;;;
2019/07/19 05:01:31;;;;;;;7.65;6.85;;;;;;;17.53;68.33008;95167.35;;;;
2019/07/19 05:02:32;;;;;;;7.8;7.100001;;;;;;;17.68;68.2334;95161.4;;;;
2019/07/19 05:03:33;;;;;;;7.8;7.100001;;;;;;;17.68;68.2334;95161.4;;;;
2019/07/19 05:04:34;;;;;;;7.8;7.100001;;;;;;;17.68;68.2334;95161.4;;;;
2019/07/19 05:05:35;;;;;;;7.8;7.100001;;;;;;;17.68;68.2334;95161.4;;;;
2019/07/19 05:06:36;;;;;;;7.8;7.100001;;;;;;;17.68;68.2334;95161.4;;;;
2019/07/19 05:07:37;;;;;;;7.8;7.100001;;;;;;;17.68;68.2334;95161.4;;;;
2019/07/19 05:08:38;;;;;;;7.8;7.100001;;;;;;;17.68;68.2334;95161.4;;;;
2019/07/19 05:09:39;;;;;;;7.8;7.100001;;;;;;;17.68;68.2334;95161.4;;;;
2019/07/19 05:10:40;;;;;;;7.8;7.100001;;;;;;;17.68;68.2334;95161.4;;;;
2019/07/19 05:11:41;;;;;;;7.8;7.100001;;;;;;;17.68;68.2334;95161.4;;;;
2019/07/19 05:12:43;;;;;;;9.3;7.299999;;;;;;;17.83;67.94043;95154.86;;;;
2019/07/19 05:13:44;;;;;;;9.3;7.299999;;;;;;;17.83;67.94043;95154.86;;;;
2019/07/19 05:14:45;;;;;;;9.3;7.299999;;;;;;;17.83;67.94043;95154.86;;;;
2019/07/19 05:15:46;;;;;;;9.3;7.299999;;;;;;;17.83;67.94043;95154.86;;;;
2019/07/19 05:16:47;;;;;;;9.3;7.299999;;;;;;;17.83;67.94043;95154.86;;;;
2019/07/19 05:17:48;;;;;;;9.3;7.299999;;;;;;;17.83;67.94043;95154.86;;;;
2019/07/19 05:18:49;;;;;;;9.3;7.299999;;;;;;;17.83;67.94043;95154.86;;;;
2019/07/19 05:19:50;;;;;;;9.3;7.299999;;;;;;;17.83;67.94043;95154.86;;;;
2019/07/19 05:20:51;;;;;;;9.3;7.299999;;;;;;;17.83;67.94043;95154.86;;;;
2019/07/19 05:21:52;;;;;;;9.3;7.299999;;;;;;;17.83;67.94043;95154.86;;;;
2019/07/19 05:22:54;;;;;;;9.3;7.299999;;;;;;;17.83;67.94043;95154.86;;;;
2019/07/19 05:23:55;;;;;;;7;6.4;;;;;;;18.14;67.69336;95159.41;;;;
2019/07/19 05:24:56;;;;;;;7;6.4;;;;;;;18.14;67.69336;95159.41;;;;
2019/07/19 05:25:57;;;;;;;7;6.4;;;;;;;18.14;67.69336;95159.41;;;;
2019/07/19 05:26:58;;;;;;;7;6.4;;;;;;;18.14;67.69336;95159.41;;;;
2019/07/19 05:27:59;;;;;;;7;6.4;;;;;;;18.14;67.69336;95159.41;;;;
2019/07/19 05:29:00;;;;;;;7;6.4;;;;;;;18.14;67.69336;95159.41;;;;
2019/07/19 05:30:01;;;;;;;7;6.4;;;;;;;18.14;67.69336;95159.41;;;;
2019/07/19 05:31:04;;;;;;;7;6.4;;;;;;;18.14;67.69336;95159.41;;;;
2019/07/19 05:32:05;;;;;;;7;6.4;;;;;;;18.14;67.69336;95159.41;;;;
2019/07/19 05:33:06;;;;;;;7;6.4;;;;;;;18.14;67.69336;95159.41;;;;
2019/07/19 05:34:07;;;;;;;6.65;6;;;;;;;18.39;67.05469;95160.15;;;;
2019/07/19 05:35:08;;;;;;;6.65;6;;;;;;;18.39;67.05469;95160.15;;;;